LGEL weather

Elefsis Airport
Elefsina, Attica, Greece

Public forecast

Using degrees Celsius for public forecast. Weather courtesy of forecast.io.

Current aviation weather report (METAR) for Elefsis Airport

Retrieved 2020/05/28 21:20 UTC (38 minutes ago):

LGEL 282120Z /////KT 9999 FEW025 16/10 Q1016

Aviation forecast (TAF) for Elefsis Airport

Retrieved 2020/05/28 18:16 UTC (4 hours ago):

TAF LGEL 281700Z 2818/2918 VRB05KT 9999 FEW018 SCT025 BECMG 2907/2909 20010KT BECMG 2916/2918 VRB05KT PROB40 TEMPO 2910/2918 5000 RA FEW018TCU SCT020 BKN070 PROB40 TEMPO 2910/2918 5000 TSRA SCT015 FEW018CB BKN020 BKN070